Aérodrome :
LOGIN :

S'inscrire | Disclaimer

   EN    FR    IT 

 










Légende :    VFR   VFR Marginal   IFR   IFR Intensif   IFR Très Intensif
Visi : 
Plafond : 
>= 8 km
>= 3000ft
5 à 8 km
1000 à 3000 ft
1500m à 5 km
500 à 1000 ft
800 à 1500m
200 à 500 ft
< 800m
< 200 ft
Symboles :   Orages  Brouillard  Fortes neiges  Fortes précipitations  Vent > 20 kt
SIGMETs :   Divers  Orages  Givrage  Turbulence  Onde Orograph.  Cendres Volcan.







- Altitude de l'aérodrome : 348 ft
- Code IATA : STN
- Voir les cartes d'approche


EGSS - London Stansted

DERNIER METAR :
  • 251820Z AUTO 02003KT 9000 BKN027 17/14 Q1019

METARs EXPIRÉS :
  • 251750Z AUTO 04004KT 010V070 9000 BKN028 18/14 Q1019
  • 251720Z AUTO 05005KT 030V090 8000 OVC025 17/14 Q1018
  • 251650Z AUTO 06006KT 9999 FEW019 BKN023 OVC027 17/14 Q1018
  • 251620Z AUTO 07006KT 040V110 8000 FEW014 OVC021 17/14 Q1018
  • 251550Z AUTO 07005KT 010V140 8000 BKN013 OVC018 17/14 Q1019

TAF TAF EGSS
Valide du 25 à 18h jusqu'au 27 à 00h UTC


251702Z 2518/2624 VRB04KT 8000 SCT015
PROB40
TEMPO 2518/2521 9999 BKN014
BECMG 2521/2524 4000 HZ BKN003
PROB40 2600/2608 0200 FG BKN001
BECMG 2603/2606 03010KT
BECMG 2608/2611 9999 NSW SCT020
ATIS : +44 1279 669 325
Pas de NOTAMs connus pour ce terrain.



MET'MAP, la Météo Aéronautique d'un coup d'oeil ! - Copyright ORBIFLY Décembre 2007 - Disclaimer

ORBIFLY MET'MAP TEAM :

Programmation & Développement : Alexandra Zaïnal
Conception & Développement : Baudouin d'Aumeries
Co-Programmation & Développement : Marc-Olivier Méhu
Soutien technique & logistique : Manuel Goepfert

Contact : metmap@orbifly.com




SOURCES & CREDITS :

   NOAA